createdAt,value
2018-03-31T00:01:24.744Z,79.40
2018-03-31T00:03:52.774Z,79.50
2018-03-31T00:06:19.795Z,79.50
2018-03-31T00:08:47.602Z,79.80
2018-03-31T00:11:14.706Z,79.90
2018-03-31T00:13:41.743Z,80.10
2018-03-31T00:16:09.020Z,80.30
2018-03-31T00:18:36.803Z,80.30
2018-03-31T00:21:03.792Z,80.30
2018-03-31T00:23:30.836Z,80.40
2018-03-31T00:25:57.976Z,80.50
2018-03-31T00:28:24.995Z,80.60
2018-03-31T00:30:52.220Z,80.60
2018-03-31T00:33:19.841Z,80.90
2018-03-31T00:35:47.315Z,80.90
2018-03-31T00:38:14.459Z,81.10
2018-03-31T00:40:41.498Z,81.30
2018-03-31T00:43:08.692Z,81.30
2018-03-31T00:45:36.359Z,81.50
2018-03-31T00:48:04.196Z,81.70
2018-03-31T00:50:31.991Z,81.70
2018-03-31T00:52:59.771Z,82.10
2018-03-31T00:55:26.788Z,82.10
2018-03-31T00:57:53.839Z,82.10
2018-03-31T01:00:20.865Z,82.10
2018-03-31T01:02:47.995Z,82.10
2018-03-31T01:05:15.364Z,82.20
2018-03-31T01:07:42.678Z,82.60
2018-03-31T01:10:09.799Z,82.60
2018-03-31T01:12:36.807Z,82.60
2018-03-31T01:15:03.859Z,82.50
2018-03-31T01:17:30.950Z,82.60
2018-03-31T01:19:58.056Z,82.50
2018-03-31T01:22:25.252Z,82.70
2018-03-31T01:24:53.245Z,82.80
2018-03-31T01:27:20.263Z,82.80
2018-03-31T01:29:48.035Z,82.80
2018-03-31T01:32:15.268Z,82.80
2018-03-31T01:34:43.078Z,83.00
2018-03-31T01:37:10.102Z,83.00
2018-03-31T01:39:37.320Z,82.90
2018-03-31T01:42:04.337Z,83.00
2018-03-31T01:44:31.371Z,83.00
2018-03-31T01:46:58.375Z,82.90
2018-03-31T01:49:26.231Z,83.20
2018-03-31T01:51:53.272Z,83.20
2018-03-31T01:54:20.779Z,83.00
2018-03-31T01:56:47.810Z,83.20
2018-03-31T01:59:14.839Z,83.20
2018-03-31T02:01:41.866Z,83.10
2018-03-31T02:04:09.106Z,83.20
2018-03-31T02:06:36.189Z,83.10
2018-03-31T02:09:03.210Z,83.10
2018-03-31T02:11:30.254Z,83.20
2018-03-31T02:13:57.292Z,83.10
2018-03-31T02:16:24.341Z,83.10
2018-03-31T02:18:51.542Z,82.90
2018-03-31T02:21:19.322Z,82.80
2018-03-31T02:23:46.365Z,82.80
2018-03-31T02:26:13.504Z,83.00
2018-03-31T02:28:41.530Z,82.60
2018-03-31T02:31:08.564Z,82.60
2018-03-31T02:33:35.703Z,82.90
2018-03-31T02:36:02.739Z,82.90
2018-03-31T02:38:29.772Z,83.00
2018-03-31T02:40:57.590Z,83.50
2018-03-31T02:43:24.594Z,83.50
2018-03-31T02:45:51.599Z,83.50
2018-03-31T02:48:18.791Z,83.50
2018-03-31T02:50:45.833Z,83.60
2018-03-31T02:53:12.878Z,83.60
2018-03-31T02:55:40.675Z,84.10
2018-03-31T02:58:07.883Z,84.10
2018-03-31T03:00:35.659Z,84.10
2018-03-31T03:03:03.604Z,84.20
2018-03-31T03:05:30.644Z,84.10
2018-03-31T03:07:57.825Z,84.00
2018-03-31T03:10:24.853Z,84.20
2018-03-31T03:12:51.862Z,84.20
2018-03-31T03:15:18.899Z,84.10
2018-03-31T03:17:46.049Z,84.10
2018-03-31T03:20:13.067Z,84.30
2018-03-31T03:22:40.081Z,84.40
2018-03-31T03:25:07.103Z,84.40
2018-03-31T03:27:34.203Z,84.10
2018-03-31T03:30:02.193Z,84.50
2018-03-31T03:32:29.212Z,84.40
2018-03-31T03:34:57.056Z,84.50
2018-03-31T03:37:24.227Z,84.50
2018-03-31T03:39:51.338Z,85.30
2018-03-31T03:42:18.478Z,84.20
2018-03-31T03:44:45.590Z,84.30
2018-03-31T03:47:13.399Z,84.20
2018-03-31T03:49:40.629Z,83.90
2018-03-31T03:52:07.652Z,83.90
2018-03-31T03:54:34.695Z,84.00
2018-03-31T03:57:01.737Z,83.80
2018-03-31T03:59:28.764Z,83.60
2018-03-31T04:01:55.985Z,83.30
2018-03-31T04:04:23.006Z,83.10
2018-03-31T04:06:50.048Z,83.10
2018-03-31T04:09:17.832Z,82.70
2018-03-31T04:11:45.417Z,82.70
2018-03-31T04:14:12.461Z,82.90
2018-03-31T04:16:39.574Z,82.70
2018-03-31T04:19:07.371Z,82.70
2018-03-31T04:21:34.392Z,82.60
2018-03-31T04:24:01.489Z,82.20
2018-03-31T04:26:28.686Z,81.90
2018-03-31T04:28:56.541Z,81.90
2018-03-31T04:31:23.588Z,81.80
2018-03-31T04:33:51.392Z,81.90
2018-03-31T04:36:18.404Z,81.90
2018-03-31T04:38:45.413Z,81.50
2018-03-31T04:41:12.447Z,81.70
2018-03-31T04:43:39.477Z,81.60
2018-03-31T04:46:06.497Z,81.30
2018-03-31T04:48:33.535Z,81.90
2018-03-31T04:51:00.578Z,82.00
2018-03-31T04:53:27.667Z,82.90
2018-03-31T04:55:54.776Z,81.80
2018-03-31T04:58:21.831Z,81.80
2018-03-31T05:00:48.888Z,82.10
2018-03-31T05:03:15.895Z,82.10
2018-03-31T05:05:43.009Z,82.20
2018-03-31T05:08:11.575Z,81.90
2018-03-31T05:10:39.571Z,81.00
2018-03-31T05:13:06.659Z,81.00
2018-03-31T05:15:33.775Z,81.20
2018-03-31T05:18:00.972Z,81.00
2018-03-31T05:20:28.158Z,80.70
2018-03-31T05:22:55.208Z,80.90
2018-03-31T05:25:22.239Z,80.90
2018-03-31T05:27:49.250Z,80.80
2018-03-31T05:30:16.541Z,80.90
2018-03-31T05:32:43.644Z,80.60
2018-03-31T05:35:10.661Z,80.20
2018-03-31T05:37:37.663Z,79.50
2018-03-31T05:40:04.946Z,79.40
2018-03-31T05:42:31.975Z,79.20
2018-03-31T05:44:59.830Z,79.40
2018-03-31T05:47:26.884Z,79.20
2018-03-31T05:49:54.016Z,79.30
2018-03-31T05:52:21.193Z,79.40
2018-03-31T05:54:48.237Z,79.30
2018-03-31T05:57:15.999Z,79.50
2018-03-31T05:59:43.091Z,79.40
2018-03-31T06:02:10.438Z,79.50
2018-03-31T06:04:37.479Z,79.20
2018-03-31T06:07:04.599Z,79.30
2018-03-31T06:09:32.413Z,79.20
2018-03-31T06:11:59.651Z,79.20
2018-03-31T06:14:26.667Z,79.40
2018-03-31T06:16:54.749Z,79.20
2018-03-31T06:19:21.749Z,79.20
2018-03-31T06:21:48.759Z,79.70
2018-03-31T06:24:15.902Z,79.80
2018-03-31T06:26:43.100Z,79.90
2018-03-31T06:29:10.109Z,79.90
2018-03-31T06:31:37.258Z,80.90
2018-03-31T06:34:04.729Z,83.30
2018-03-31T06:36:32.167Z,84.80
2018-03-31T06:38:59.196Z,86.20
2018-03-31T06:41:26.207Z,87.20
2018-03-31T06:43:53.247Z,87.10
2018-03-31T06:46:20.256Z,90.90
2018-03-31T06:48:47.291Z,91.80
2018-03-31T06:51:14.349Z,92.50
2018-03-31T06:53:41.358Z,92.00
2018-03-31T06:56:08.377Z,91.80
2018-03-31T06:58:35.439Z,92.40
2018-03-31T07:01:02.529Z,92.80
2018-03-31T07:03:29.576Z,93.80
2018-03-31T07:05:56.906Z,92.70
2018-03-31T07:08:23.939Z,93.90
2018-03-31T07:10:50.968Z,96.20
2018-03-31T07:13:18.106Z,95.20
2018-03-31T07:15:45.107Z,94.30
2018-03-31T07:18:12.280Z,94.70
2018-03-31T07:20:39.316Z,95.60
2018-03-31T07:23:06.819Z,96.50
2018-03-31T07:25:33.828Z,97.00
2018-03-31T07:28:01.622Z,99.90
2018-03-31T07:30:28.874Z,99.90
2018-03-31T07:32:55.925Z,99.90
2018-03-31T07:35:22.949Z,99.90
2018-03-31T07:37:49.955Z,99.90
2018-03-31T07:40:17.012Z,99.90
2018-03-31T07:42:44.062Z,99.90
2018-03-31T07:45:11.084Z,99.90
2018-03-31T07:47:38.105Z,99.90
2018-03-31T07:50:05.684Z,99.00
2018-03-31T07:52:32.774Z,98.90
2018-03-31T07:54:59.866Z,99.30
2018-03-31T07:57:26.887Z,98.30
2018-03-31T07:59:54.134Z,98.50
2018-03-31T08:02:21.217Z,98.00
2018-03-31T08:04:48.250Z,98.40
2018-03-31T08:07:15.426Z,98.20
2018-03-31T08:09:42.527Z,99.20
2018-03-31T08:12:10.306Z,98.50
2018-03-31T08:14:37.342Z,98.50
2018-03-31T08:17:04.352Z,98.10
2018-03-31T08:19:31.371Z,99.10
2018-03-31T08:21:58.446Z,98.60
2018-03-31T08:24:25.461Z,98.40
2018-03-31T08:26:52.856Z,98.70
2018-03-31T08:29:19.928Z,97.70
2018-03-31T08:31:46.990Z,97.80
2018-03-31T08:34:14.958Z,98.20
2018-03-31T08:36:42.029Z,98.20
2018-03-31T08:39:09.076Z,97.40
2018-03-31T08:41:36.115Z,98.00
2018-03-31T08:44:03.157Z,99.70
2018-03-31T08:46:30.309Z,98.80
2018-03-31T08:48:57.365Z,98.70
2018-03-31T08:51:24.378Z,98.50
2018-03-31T08:53:51.643Z,98.70
2018-03-31T08:56:18.923Z,97.80
2018-03-31T08:58:46.044Z,98.30
2018-03-31T09:01:13.430Z,97.60
2018-03-31T09:03:40.449Z,97.80
2018-03-31T09:06:07.467Z,98.80
2018-03-31T09:08:34.480Z,99.00
2018-03-31T09:11:01.509Z,99.50
2018-03-31T09:13:28.656Z,99.30
2018-03-31T09:15:55.838Z,99.90
2018-03-31T09:18:22.871Z,99.90
2018-03-31T09:20:49.923Z,99.90
2018-03-31T09:23:16.941Z,99.80
2018-03-31T09:25:44.918Z,98.50
2018-03-31T09:28:11.962Z,98.50
2018-03-31T09:30:39.004Z,99.60
2018-03-31T09:33:06.794Z,99.20
2018-03-31T09:35:33.982Z,99.20
2018-03-31T09:38:01.650Z,99.90
2018-03-31T09:40:28.674Z,99.90
2018-03-31T09:42:56.012Z,99.00
2018-03-31T09:45:23.382Z,99.10
2018-03-31T09:47:50.470Z,99.90
2018-03-31T09:50:18.333Z,98.70
2018-03-31T09:52:45.371Z,98.70
2018-03-31T09:55:12.392Z,97.70
2018-03-31T09:57:39.431Z,97.30
2018-03-31T10:00:06.434Z,97.00
2018-03-31T10:02:33.690Z,96.40
2018-03-31T10:05:01.517Z,95.70
2018-03-31T10:07:28.733Z,95.80
2018-03-31T10:09:55.853Z,95.70
2018-03-31T10:12:22.911Z,95.10
2018-03-31T10:14:49.956Z,94.80
2018-03-31T10:17:17.747Z,94.80
2018-03-31T10:19:45.168Z,94.70
2018-03-31T10:22:12.238Z,97.30
2018-03-31T10:24:39.235Z,97.40
2018-03-31T10:27:06.282Z,97.40
2018-03-31T10:29:33.305Z,97.90
2018-03-31T10:32:00.364Z,98.60
2018-03-31T10:34:27.461Z,99.40
2018-03-31T10:36:55.128Z,98.00
2018-03-31T10:39:22.924Z,97.60
2018-03-31T10:41:50.028Z,97.60
2018-03-31T10:44:17.054Z,97.80
2018-03-31T10:46:44.061Z,96.50
2018-03-31T10:49:11.082Z,98.30
2018-03-31T10:51:38.919Z,95.40
2018-03-31T10:54:07.142Z,95.40
2018-03-31T10:56:34.715Z,95.40
2018-03-31T10:59:01.858Z,94.80
2018-03-31T11:01:28.888Z,95.00
2018-03-31T11:03:56.016Z,95.00
2018-03-31T11:06:23.083Z,94.50
2018-03-31T11:08:50.100Z,94.00
2018-03-31T11:11:18.846Z,94.40
2018-03-31T11:13:45.878Z,94.30
2018-03-31T11:16:13.412Z,93.00
2018-03-31T11:18:40.439Z,92.90
2018-03-31T11:21:07.443Z,92.50
2018-03-31T11:23:34.447Z,92.70
2018-03-31T11:26:01.501Z,91.90
2018-03-31T11:28:28.552Z,91.80
2018-03-31T11:30:56.359Z,91.40
2018-03-31T11:33:23.428Z,91.30
2018-03-31T11:35:50.456Z,91.30
2018-03-31T11:38:17.457Z,90.90
2018-03-31T11:40:45.332Z,90.30
2018-03-31T11:43:12.335Z,90.20
2018-03-31T11:45:39.669Z,90.30
2018-03-31T11:48:07.152Z,90.00
2018-03-31T11:50:34.231Z,90.20
2018-03-31T11:53:01.301Z,90.70
2018-03-31T11:55:28.386Z,90.10
2018-03-31T11:57:56.096Z,90.20
2018-03-31T12:00:23.151Z,90.20
2018-03-31T12:02:51.537Z,90.60
2018-03-31T12:05:18.576Z,90.60
2018-03-31T12:07:46.347Z,90.00
2018-03-31T12:10:13.429Z,90.00
2018-03-31T12:12:40.664Z,90.30
2018-03-31T12:15:07.732Z,90.30
2018-03-31T12:17:34.957Z,90.00
2018-03-31T12:20:02.165Z,89.80
2018-03-31T12:22:29.165Z,90.00
2018-03-31T12:24:56.279Z,89.00
2018-03-31T12:27:23.321Z,89.40
2018-03-31T12:29:50.381Z,89.50
2018-03-31T12:32:17.399Z,88.70
2018-03-31T12:34:44.480Z,87.80
2018-03-31T12:37:12.252Z,88.40
2018-03-31T12:39:39.565Z,88.40
2018-03-31T12:42:07.515Z,88.20
2018-03-31T12:44:34.610Z,88.80
2018-03-31T12:47:02.359Z,87.90
2018-03-31T12:49:29.461Z,87.50
2018-03-31T12:51:56.886Z,88.60
2018-03-31T12:54:23.934Z,88.20
2018-03-31T12:56:50.961Z,88.60
2018-03-31T12:59:17.964Z,88.70
2018-03-31T13:01:44.976Z,88.40
2018-03-31T13:04:13.218Z,88.10
2018-03-31T13:06:40.644Z,88.00
2018-03-31T13:09:07.678Z,88.80
2018-03-31T13:11:35.125Z,88.20
2018-03-31T13:14:02.173Z,86.90
2018-03-31T13:16:29.176Z,88.10
2018-03-31T13:18:56.203Z,88.10
2018-03-31T13:21:23.242Z,87.00
2018-03-31T13:23:50.399Z,87.30
2018-03-31T13:26:17.433Z,87.50
2018-03-31T13:28:44.486Z,86.40
2018-03-31T13:31:11.553Z,87.50
2018-03-31T13:33:38.582Z,88.10
2018-03-31T13:36:05.622Z,87.30
2018-03-31T13:38:32.755Z,88.30
2018-03-31T13:41:00.546Z,89.30
2018-03-31T13:43:27.627Z,89.30
2018-03-31T13:45:55.311Z,88.90
2018-03-31T13:48:22.610Z,88.80
2018-03-31T13:50:49.723Z,89.30
2018-03-31T13:53:16.738Z,88.30
2018-03-31T13:55:43.761Z,89.30
2018-03-31T13:58:10.904Z,90.30
2018-03-31T14:00:37.963Z,90.00
2018-03-31T14:03:05.316Z,90.10
2018-03-31T14:05:32.371Z,90.20
2018-03-31T14:07:59.590Z,90.40
2018-03-31T14:10:26.748Z,90.40
2018-03-31T14:12:53.791Z,90.70
2018-03-31T14:15:20.832Z,90.20
2018-03-31T14:17:47.865Z,90.50
2018-03-31T14:20:14.911Z,90.10
2018-03-31T14:22:41.956Z,90.50
2018-03-31T14:25:09.800Z,91.00
2018-03-31T14:27:36.861Z,90.70
2018-03-31T14:30:03.877Z,90.50
2018-03-31T14:32:31.628Z,91.10
2018-03-31T14:34:58.647Z,91.10
2018-03-31T14:37:25.765Z,91.20
2018-03-31T14:39:52.789Z,91.00
2018-03-31T14:42:20.453Z,91.00
2018-03-31T14:44:47.491Z,92.20
2018-03-31T14:47:14.838Z,91.30
2018-03-31T14:49:42.029Z,91.60
2018-03-31T14:52:09.838Z,91.70
2018-03-31T14:54:36.870Z,91.70
2018-03-31T14:57:04.163Z,92.20
2018-03-31T14:59:31.286Z,91.50
2018-03-31T15:01:58.458Z,92.20
2018-03-31T15:04:25.537Z,92.00
2018-03-31T15:06:52.579Z,92.20
2018-03-31T15:09:19.728Z,91.60
2018-03-31T15:11:46.767Z,91.70
2018-03-31T15:14:13.771Z,92.70
2018-03-31T15:16:41.640Z,91.90
2018-03-31T15:19:09.635Z,92.30
2018-03-31T15:21:36.634Z,92.30
2018-03-31T15:24:04.137Z,91.20
2018-03-31T15:26:32.002Z,91.50
2018-03-31T15:28:59.059Z,91.60
2018-03-31T15:31:26.091Z,92.10
2018-03-31T15:33:53.162Z,93.00
2018-03-31T15:36:20.403Z,93.00
2018-03-31T15:38:47.626Z,92.70
2018-03-31T15:41:15.622Z,93.40
2018-03-31T15:43:42.686Z,93.30
2018-03-31T15:46:09.736Z,92.90
2018-03-31T15:48:36.992Z,92.90
2018-03-31T15:51:04.229Z,92.60
2018-03-31T15:53:31.281Z,92.40
2018-03-31T15:55:58.449Z,92.40
2018-03-31T15:58:25.908Z,92.10
2018-03-31T16:00:52.991Z,92.20
2018-03-31T16:03:20.794Z,92.00
2018-03-31T16:05:47.931Z,92.30
2018-03-31T16:08:14.954Z,92.60
2018-03-31T16:10:41.977Z,92.80
2018-03-31T16:13:09.263Z,92.60
2018-03-31T16:15:37.074Z,92.60
2018-03-31T16:18:04.149Z,92.60
2018-03-31T16:20:32.018Z,92.70
2018-03-31T16:22:59.035Z,92.50
2018-03-31T16:25:26.754Z,92.60
2018-03-31T16:27:56.232Z,92.60
2018-03-31T16:30:23.530Z,92.60
2018-03-31T16:32:50.566Z,92.30
2018-03-31T16:35:18.695Z,92.60
2018-03-31T16:37:46.185Z,92.60
2018-03-31T16:40:13.205Z,92.40
2018-03-31T16:42:40.322Z,92.50
2018-03-31T16:45:07.352Z,92.90
2018-03-31T16:47:34.503Z,92.70
2018-03-31T16:50:01.625Z,92.90
2018-03-31T16:52:28.668Z,93.10
2018-03-31T16:54:55.812Z,93.30
2018-03-31T16:57:22.882Z,93.20
2018-03-31T16:59:49.948Z,93.20
2018-03-31T17:02:17.035Z,93.30
2018-03-31T17:04:44.087Z,93.40
2018-03-31T17:07:11.190Z,93.60
2018-03-31T17:09:39.286Z,93.30
2018-03-31T17:12:06.458Z,93.40
2018-03-31T17:14:33.608Z,93.10
2018-03-31T17:17:00.656Z,93.30
2018-03-31T17:19:27.657Z,93.50
2018-03-31T17:21:54.820Z,93.40
2018-03-31T17:24:21.979Z,93.10
2018-03-31T17:26:49.130Z,93.30
2018-03-31T17:29:16.152Z,93.10
2018-03-31T17:31:44.148Z,93.10
2018-03-31T17:34:11.205Z,93.10
2018-03-31T17:36:38.237Z,92.90
2018-03-31T17:39:05.299Z,92.70
2018-03-31T17:41:32.784Z,92.70
2018-03-31T17:43:59.821Z,92.90
2018-03-31T17:46:26.925Z,92.50
2018-03-31T17:48:53.996Z,92.30
2018-03-31T17:51:21.598Z,92.50
2018-03-31T17:53:48.801Z,92.70
2018-03-31T17:56:15.872Z,92.60
2018-03-31T17:58:44.079Z,92.90
2018-03-31T18:01:11.415Z,93.30
2018-03-31T18:03:38.449Z,93.80
2018-03-31T18:06:05.701Z,93.80
2018-03-31T18:08:32.727Z,94.30
2018-03-31T18:11:00.022Z,93.40
2018-03-31T18:13:27.051Z,93.00
2018-03-31T18:15:54.112Z,93.20
2018-03-31T18:18:21.173Z,93.70
2018-03-31T18:20:48.265Z,94.30
2018-03-31T18:23:15.725Z,93.50
2018-03-31T18:25:42.905Z,93.80
2018-03-31T18:28:09.980Z,94.30
2018-03-31T18:30:37.907Z,94.00
2018-03-31T18:33:05.050Z,94.00
2018-03-31T18:35:32.177Z,94.20
2018-03-31T18:38:00.039Z,94.30
2018-03-31T18:40:27.759Z,94.30
2018-03-31T18:42:54.825Z,93.90
2018-03-31T18:45:22.649Z,93.90
2018-03-31T18:47:49.700Z,93.90
2018-03-31T18:50:16.947Z,95.30
2018-03-31T18:52:45.050Z,95.70
2018-03-31T18:55:12.109Z,95.20
2018-03-31T18:57:39.841Z,94.60
2018-03-31T19:00:06.883Z,94.50
2018-03-31T19:02:33.931Z,95.60
2018-03-31T19:05:01.006Z,95.60
2018-03-31T19:07:28.079Z,96.20
2018-03-31T19:09:55.208Z,95.40
2018-03-31T19:12:22.363Z,96.50
2018-03-31T19:14:49.394Z,96.00
2018-03-31T19:17:16.445Z,95.80
2018-03-31T19:19:43.490Z,95.40
2018-03-31T19:22:10.590Z,95.20
2018-03-31T19:24:43.312Z,95.80
2018-03-31T19:27:10.363Z,95.50
2018-03-31T19:29:37.659Z,95.80
2018-03-31T19:32:04.856Z,95.50
2018-03-31T19:34:31.949Z,95.60
2018-03-31T19:36:59.004Z,95.20
2018-03-31T19:39:31.796Z,95.90
2018-03-31T19:41:58.838Z,95.60
2018-03-31T19:44:25.878Z,95.60
2018-03-31T19:46:53.830Z,95.90
2018-03-31T19:49:20.836Z,95.80
2018-03-31T19:51:47.968Z,94.70
2018-03-31T19:54:15.896Z,94.00
2018-03-31T19:56:43.028Z,94.00
2018-03-31T19:59:10.049Z,93.70
2018-03-31T20:01:37.174Z,94.40
2018-03-31T20:04:05.009Z,93.80
2018-03-31T20:06:32.151Z,93.80
2018-03-31T20:08:59.218Z,93.50
2018-03-31T20:11:26.380Z,93.70
2018-03-31T20:13:53.397Z,93.80
2018-03-31T20:16:20.558Z,93.50
2018-03-31T20:18:47.602Z,93.60
2018-03-31T20:21:15.868Z,93.60
2018-03-31T20:23:43.808Z,93.90
2018-03-31T20:26:11.016Z,93.80
2018-03-31T20:28:38.060Z,94.00
2018-03-31T20:31:05.097Z,93.50
2018-03-31T20:33:32.237Z,93.60
2018-03-31T20:35:59.308Z,93.50
2018-03-31T20:38:26.507Z,93.10
2018-03-31T20:40:53.571Z,94.30
2018-03-31T20:43:21.558Z,93.90
2018-03-31T20:45:48.649Z,93.50
2018-03-31T20:48:15.737Z,93.40
2018-03-31T20:50:43.194Z,93.20
2018-03-31T20:53:10.255Z,93.70
2018-03-31T20:55:37.365Z,93.30
2018-03-31T20:58:04.406Z,93.60
2018-03-31T21:00:31.623Z,93.10
2018-03-31T21:02:59.108Z,92.80
2018-03-31T21:05:26.939Z,93.10
2018-03-31T21:07:54.202Z,93.10
2018-03-31T21:10:21.455Z,92.30
2018-03-31T21:12:48.534Z,92.20
2018-03-31T21:15:15.646Z,92.50
2018-03-31T21:17:42.682Z,92.60
2018-03-31T21:20:09.769Z,92.50
2018-03-31T21:22:37.074Z,92.30
2018-03-31T21:25:04.672Z,92.80
2018-03-31T21:27:31.905Z,93.00
2018-03-31T21:29:59.136Z,92.50
2018-03-31T21:32:26.218Z,93.20
2018-03-31T21:34:53.799Z,93.30
2018-03-31T21:37:22.239Z,93.50
2018-03-31T21:39:49.364Z,93.40
2018-03-31T21:42:16.533Z,93.00
2018-03-31T21:44:43.580Z,92.50
2018-03-31T21:47:10.686Z,92.60
2018-03-31T21:49:38.539Z,93.30
2018-03-31T21:52:06.143Z,93.30
2018-03-31T21:54:33.975Z,93.60
2018-03-31T21:57:01.032Z,93.10
2018-03-31T21:59:28.269Z,93.70
2018-03-31T22:01:55.675Z,93.40
2018-03-31T22:04:22.841Z,92.90
2018-03-31T22:06:50.102Z,93.60
2018-03-31T22:09:17.197Z,94.80
2018-03-31T22:11:45.024Z,94.20
2018-03-31T22:14:18.370Z,94.20
2018-03-31T22:16:45.410Z,94.30
2018-03-31T22:19:12.437Z,94.40
2018-03-31T22:21:39.723Z,93.90
2018-03-31T22:24:06.770Z,94.70
2018-03-31T22:26:34.145Z,95.10
2018-03-31T22:29:01.152Z,94.90
2018-03-31T22:31:28.238Z,94.20
2018-03-31T22:33:55.338Z,94.80
2018-03-31T22:36:22.404Z,95.50
2018-03-31T22:38:50.244Z,95.50
2018-03-31T22:41:17.358Z,95.50
2018-03-31T22:43:45.173Z,95.60
2018-03-31T22:46:12.166Z,94.90
2018-03-31T22:48:39.236Z,95.30
2018-03-31T22:51:06.285Z,95.20
2018-03-31T22:53:33.321Z,95.30
2018-03-31T22:56:00.335Z,95.90
2018-03-31T22:58:27.583Z,95.40
2018-03-31T23:00:55.063Z,94.70
2018-03-31T23:03:22.160Z,95.80
2018-03-31T23:05:49.965Z,95.00
2018-03-31T23:08:16.993Z,95.00
2018-03-31T23:10:44.800Z,95.00
2018-03-31T23:13:12.044Z,94.90
2018-03-31T23:15:39.078Z,96.00
2018-03-31T23:18:06.087Z,94.40
2018-03-31T23:20:33.127Z,94.70
2018-03-31T23:23:00.736Z,95.70
2018-03-31T23:25:27.752Z,95.30
2018-03-31T23:27:54.837Z,95.00
2018-03-31T23:30:22.136Z,96.30
2018-03-31T23:32:49.191Z,96.70
2018-03-31T23:35:16.248Z,95.10
2018-03-31T23:37:43.562Z,95.30
2018-03-31T23:40:10.676Z,95.50
2018-03-31T23:42:37.720Z,95.50
2018-03-31T23:45:04.768Z,96.70
2018-03-31T23:47:32.567Z,95.20
2018-03-31T23:49:59.710Z,95.20
2018-03-31T23:52:26.756Z,95.40
2018-03-31T23:54:53.782Z,96.30
2018-03-31T23:57:20.862Z,96.20
2018-03-31T23:59:48.033Z,96.00
